createdAt,value
2018-09-22T00:02:06.721Z,5.75
2018-09-22T00:04:38.611Z,7.03
2018-09-22T00:07:08.496Z,5.28
2018-09-22T00:09:39.351Z,5.10
2018-09-22T00:12:15.219Z,4.83
2018-09-22T00:14:48.696Z,4.95
2018-09-22T00:17:22.387Z,4.10
2018-09-22T00:19:53.232Z,4.10
2018-09-22T00:22:25.104Z,3.58
2018-09-22T00:25:14.823Z,3.98
2018-09-22T00:27:49.088Z,3.00
2018-09-22T00:30:19.903Z,3.42
2018-09-22T00:32:54.731Z,2.80
2018-09-22T00:35:28.651Z,2.17
2018-09-22T00:37:58.479Z,2.75
2018-09-22T00:40:30.315Z,2.45
2018-09-22T00:43:05.916Z,2.30
2018-09-22T00:45:39.361Z,2.30
2018-09-22T00:48:10.207Z,1.80
2018-09-22T00:50:41.031Z,2.30
2018-09-22T00:53:10.887Z,1.80
2018-09-22T00:55:45.271Z,1.87
2018-09-22T00:58:15.039Z,1.87
2018-09-22T01:00:49.003Z,2.65
2018-09-22T01:03:22.031Z,1.72
2018-09-22T01:05:52.799Z,2.05
2018-09-22T01:08:22.627Z,1.62
2018-09-22T01:10:55.499Z,2.20
2018-09-22T01:13:26.341Z,2.30
2018-09-22T01:15:56.266Z,2.08
2018-09-22T01:18:26.987Z,2.10
2018-09-22T01:20:57.807Z,2.10
2018-09-22T01:23:29.679Z,1.75
2018-09-22T01:25:59.495Z,2.25
2018-09-22T01:28:30.335Z,2.20
2018-09-22T01:31:01.147Z,1.92
2018-09-22T01:33:36.961Z,1.80
2018-09-22T01:36:06.827Z,1.67
2018-09-22T01:38:37.815Z,2.90
2018-09-22T01:41:07.663Z,1.87
2018-09-22T01:43:37.515Z,2.42
2018-09-22T01:46:15.071Z,2.00
2018-09-22T01:48:54.967Z,2.15
2018-09-22T01:51:25.802Z,2.15
2018-09-22T01:53:55.622Z,1.90
2018-09-22T01:56:25.535Z,2.15
2018-09-22T01:59:02.155Z,3.02
2018-09-22T02:01:31.971Z,2.65
2018-09-22T02:04:05.175Z,2.15
2018-09-22T02:06:38.243Z,2.83
2018-09-22T02:09:11.096Z,2.17
2018-09-22T02:11:46.303Z,2.02
2018-09-22T02:14:25.152Z,3.05
2018-09-22T02:16:55.011Z,2.77
2018-09-22T02:19:29.691Z,2.62
2018-09-22T02:22:07.367Z,3.22
2018-09-22T02:24:37.510Z,2.37
2018-09-22T02:27:09.311Z,3.12
2018-09-22T02:29:41.183Z,2.37
2018-09-22T02:32:30.019Z,1.85
2018-09-22T02:34:59.854Z,1.87
2018-09-22T02:37:33.058Z,2.62
2018-09-22T02:40:03.891Z,2.75
2018-09-22T02:42:33.723Z,2.55
2018-09-22T02:45:04.571Z,2.10
2018-09-22T02:47:34.422Z,2.40
2018-09-22T02:50:04.665Z,2.40
2018-09-22T02:52:37.875Z,1.95
2018-09-22T02:55:12.806Z,2.25
2018-09-22T02:57:42.591Z,1.80
2018-09-22T03:00:12.410Z,3.58
2018-09-22T03:02:48.435Z,2.05
2018-09-22T03:05:20.270Z,2.20
2018-09-22T03:07:51.106Z,2.25
2018-09-22T03:10:31.366Z,1.85
2018-09-22T03:13:06.348Z,2.12
2018-09-22T03:15:37.443Z,2.00
2018-09-22T03:18:08.216Z,2.58
2018-09-22T03:20:38.052Z,2.65
2018-09-22T03:23:08.866Z,2.00
2018-09-22T03:25:42.076Z,2.05
2018-09-22T03:28:24.163Z,2.50
2018-09-22T03:30:53.971Z,1.65
2018-09-22T03:33:30.147Z,2.00
2018-09-22T03:36:02.018Z,2.42
2018-09-22T03:38:31.811Z,2.50
2018-09-22T03:41:01.635Z,2.33
2018-09-22T03:43:36.963Z,2.02
2018-09-22T03:46:07.778Z,2.08
2018-09-22T03:48:39.643Z,1.95
2018-09-22T03:51:16.183Z,2.55
2018-09-22T03:53:47.994Z,1.92
2018-09-22T03:56:17.891Z,1.60
2018-09-22T03:58:54.615Z,2.10
2018-09-22T04:01:24.491Z,2.10
2018-09-22T04:03:54.299Z,1.85
2018-09-22T04:06:26.182Z,1.90
2018-09-22T04:08:56.995Z,2.50
2018-09-22T04:11:37.142Z,1.75
2018-09-22T04:14:07.578Z,2.30
2018-09-22T04:16:38.458Z,2.35
2018-09-22T04:19:12.946Z,1.95
2018-09-22T04:21:42.734Z,2.25
2018-09-22T04:24:18.055Z,2.55
2018-09-22T04:26:51.050Z,1.60
2018-09-22T04:29:22.922Z,2.60
2018-09-22T04:32:10.379Z,4.10
2018-09-22T04:34:54.127Z,1.98
2018-09-22T04:37:24.927Z,2.17
2018-09-22T04:39:55.781Z,1.87
2018-09-22T04:42:29.555Z,1.90
2018-09-22T04:45:02.775Z,1.52
2018-09-22T04:47:36.542Z,2.20
2018-09-22T04:50:15.939Z,2.00
2018-09-22T04:52:45.798Z,2.25
2018-09-22T04:55:15.614Z,2.27
2018-09-22T04:57:45.422Z,1.90
2018-09-22T05:00:19.443Z,2.20
2018-09-22T05:02:50.270Z,1.85
2018-09-22T05:05:27.387Z,1.85
2018-09-22T05:08:00.778Z,2.40
2018-09-22T05:10:42.486Z,2.33
2018-09-22T05:13:12.346Z,2.12
2018-09-22T05:15:43.175Z,2.62
2018-09-22T05:18:14.025Z,2.40
2018-09-22T05:20:50.311Z,1.75
2018-09-22T05:23:27.079Z,2.60
2018-09-22T05:25:58.923Z,2.10
2018-09-22T05:28:29.872Z,2.20
2018-09-22T05:31:07.119Z,2.45
2018-09-22T05:33:37.004Z,2.08
2018-09-22T05:36:07.975Z,2.95
2018-09-22T05:38:37.798Z,2.85
2018-09-22T05:41:11.443Z,2.30
2018-09-22T05:43:42.243Z,2.30
2018-09-22T05:46:12.099Z,2.15
2018-09-22T05:48:57.878Z,1.90
2018-09-22T05:51:31.815Z,2.33
2018-09-22T05:54:01.704Z,1.90
2018-09-22T05:56:31.630Z,2.30
2018-09-22T05:59:01.482Z,2.58
2018-09-22T06:01:31.299Z,2.40
2018-09-22T06:04:07.698Z,1.90
2018-09-22T06:06:37.514Z,2.08
2018-09-22T06:09:12.918Z,2.40
2018-09-22T06:11:45.831Z,1.80
2018-09-22T06:14:18.707Z,1.92
2018-09-22T06:16:53.606Z,2.33
2018-09-22T06:19:24.454Z,2.22
2018-09-22T06:22:00.214Z,2.12
2018-09-22T06:24:32.150Z,2.12
2018-09-22T06:27:14.198Z,2.40
2018-09-22T06:29:44.007Z,2.27
2018-09-22T06:32:13.792Z,2.15
2018-09-22T06:34:49.450Z,1.80
2018-09-22T06:37:21.366Z,2.60
2018-09-22T06:39:51.098Z,2.22
2018-09-22T06:42:20.912Z,2.40
2018-09-22T06:44:52.782Z,2.30
2018-09-22T06:47:25.887Z,2.50
2018-09-22T06:49:59.778Z,2.80
2018-09-22T06:52:30.618Z,2.10
2018-09-22T06:55:01.555Z,2.80
2018-09-22T06:57:34.635Z,2.80
2018-09-22T07:00:05.638Z,2.20
2018-09-22T07:02:36.423Z,2.20
2018-09-22T07:05:06.226Z,3.40
2018-09-22T07:07:37.062Z,2.10
2018-09-22T07:10:07.902Z,2.40
2018-09-22T07:12:39.854Z,2.93
2018-09-22T07:15:13.547Z,2.30
2018-09-22T07:17:43.378Z,3.20
2018-09-22T07:20:32.002Z,2.47
2018-09-22T07:23:07.970Z,2.40
2018-09-22T07:25:37.798Z,2.40
2018-09-22T07:28:26.316Z,2.37
2018-09-22T07:30:59.880Z,2.40
2018-09-22T07:33:34.510Z,2.63
2018-09-22T07:36:14.140Z,2.13
2018-09-22T07:38:47.498Z,1.60
2018-09-22T07:41:22.850Z,1.90
2018-09-22T07:44:01.142Z,2.13
2018-09-22T07:46:32.926Z,2.50
2018-09-22T07:49:04.830Z,2.10
2018-09-22T07:51:34.578Z,2.00
2018-09-22T07:54:06.430Z,2.07
2018-09-22T07:56:36.262Z,2.10
2018-09-22T07:59:07.123Z,1.87
2018-09-22T08:01:36.912Z,2.43
2018-09-22T08:04:12.927Z,2.20
2018-09-22T08:06:48.538Z,2.60
2018-09-22T08:09:20.414Z,2.07
2018-09-22T08:11:54.807Z,2.07
2018-09-22T08:14:27.867Z,1.87
2018-09-22T08:16:59.643Z,2.33
2018-09-22T08:19:29.479Z,2.80
2018-09-22T08:22:03.783Z,1.90
2018-09-22T08:24:33.578Z,1.97
2018-09-22T08:27:07.307Z,2.23
2018-09-22T08:29:38.139Z,2.00
2018-09-22T08:32:09.333Z,2.00
2018-09-22T08:34:39.778Z,2.10
2018-09-22T08:37:10.709Z,2.70
2018-09-22T08:39:45.646Z,2.30
2018-09-22T08:42:19.467Z,2.40
2018-09-22T08:44:53.439Z,1.83
2018-09-22T08:47:23.174Z,1.90
2018-09-22T08:49:56.373Z,1.70
2018-09-22T08:52:35.815Z,1.93
2018-09-22T08:55:09.175Z,1.67
2018-09-22T08:57:40.001Z,2.17
2018-09-22T09:00:11.654Z,1.70
2018-09-22T09:02:42.434Z,2.00
2018-09-22T09:05:16.347Z,1.93
2018-09-22T09:07:50.251Z,1.90
2018-09-22T09:10:20.055Z,2.20
2018-09-22T09:12:51.816Z,1.87
2018-09-22T09:15:24.811Z,1.70
2018-09-22T09:17:54.621Z,1.60
2018-09-22T09:20:25.447Z,1.80
2018-09-22T09:22:55.258Z,1.47
2018-09-22T09:25:27.247Z,1.40
2018-09-22T09:27:57.050Z,1.80
2018-09-22T09:30:28.891Z,1.90
2018-09-22T09:32:58.691Z,1.93
2018-09-22T09:35:31.999Z,1.57
2018-09-22T09:38:02.851Z,1.30
2018-09-22T09:40:32.658Z,1.87
2018-09-22T09:43:02.443Z,2.43
2018-09-22T09:45:34.230Z,1.30
2018-09-22T09:48:05.050Z,1.90
2018-09-22T09:50:34.862Z,2.80
2018-09-22T09:53:04.812Z,1.50
2018-09-22T09:55:34.642Z,1.80
2018-09-22T09:58:05.906Z,2.10
2018-09-22T10:00:40.995Z,1.90
2018-09-22T10:03:12.313Z,1.87
2018-09-22T10:05:42.270Z,1.83
2018-09-22T10:08:13.225Z,3.43
2018-09-22T10:10:44.362Z,1.90
2018-09-22T10:13:25.622Z,2.20
2018-09-22T10:16:03.538Z,1.77
2018-09-22T10:18:35.363Z,2.43
2018-09-22T10:21:07.214Z,1.97
2018-09-22T10:23:38.093Z,2.07
2018-09-22T10:26:08.924Z,2.20
2018-09-22T10:28:39.734Z,1.67
2018-09-22T10:31:10.341Z,2.10
2018-09-22T10:33:40.174Z,1.97
2018-09-22T10:36:14.398Z,1.93
2018-09-22T10:38:47.478Z,1.90
2018-09-22T10:41:17.374Z,1.83
2018-09-22T10:43:48.236Z,2.27
2018-09-22T10:46:18.038Z,1.73
2018-09-22T10:48:47.917Z,2.53
2018-09-22T10:51:21.890Z,1.80
2018-09-22T10:54:01.214Z,1.50
2018-09-22T10:56:32.068Z,2.30
2018-09-22T10:59:07.321Z,1.70
2018-09-22T11:01:37.190Z,1.47
2018-09-22T11:04:06.998Z,2.00
2018-09-22T11:06:36.814Z,1.83
2018-09-22T11:09:09.682Z,2.10
2018-09-22T11:11:40.538Z,1.57
2018-09-22T11:14:14.202Z,1.60
2018-09-22T11:16:44.046Z,2.00
2018-09-22T11:19:13.854Z,1.60
2018-09-22T11:21:47.490Z,1.80
2018-09-22T11:24:22.262Z,1.90
2018-09-22T11:26:52.150Z,1.60
2018-09-22T11:29:23.954Z,1.73
2018-09-22T11:31:53.786Z,1.63
2018-09-22T11:34:23.586Z,1.77
2018-09-22T11:36:57.598Z,1.50
2018-09-22T11:39:29.462Z,1.43
2018-09-22T11:42:05.314Z,2.00
2018-09-22T11:44:35.114Z,2.23
2018-09-22T11:47:06.006Z,1.80
2018-09-22T11:49:37.798Z,1.40
2018-09-22T11:52:07.674Z,1.47
2018-09-22T11:54:37.530Z,1.50
2018-09-22T11:57:08.438Z,1.53
2018-09-22T11:59:40.259Z,1.50
2018-09-22T12:02:14.815Z,1.20
2018-09-22T12:04:46.058Z,2.00
2018-09-22T12:07:15.934Z,1.63
2018-09-22T12:09:49.710Z,1.30
2018-09-22T12:12:21.126Z,1.57
2018-09-22T12:14:55.358Z,2.70
2018-09-22T12:17:27.149Z,1.57
2018-09-22T12:19:56.990Z,1.77
2018-09-22T12:22:26.898Z,1.70
2018-09-22T12:24:56.722Z,1.40
2018-09-22T12:27:26.578Z,1.87
2018-09-22T12:29:57.434Z,1.90
2018-09-22T12:32:29.322Z,1.70
2018-09-22T12:35:02.354Z,1.67
2018-09-22T12:37:32.179Z,1.30
2018-09-22T12:40:03.021Z,1.80
2018-09-22T12:42:33.854Z,2.00
2018-09-22T12:45:03.733Z,1.60
2018-09-22T12:47:34.523Z,1.70
2018-09-22T12:50:05.382Z,1.93
2018-09-22T12:52:41.078Z,1.47
2018-09-22T12:55:17.623Z,1.07
2018-09-22T12:57:48.502Z,1.40
2018-09-22T13:00:18.310Z,1.90
2018-09-22T13:02:49.126Z,1.60
2018-09-22T13:05:18.942Z,1.50
2018-09-22T13:07:50.057Z,1.97
2018-09-22T13:10:19.951Z,1.60
2018-09-22T13:12:50.738Z,1.97
2018-09-22T13:15:20.538Z,2.10
2018-09-22T13:17:50.358Z,1.60
2018-09-22T13:20:20.260Z,1.73
2018-09-22T13:22:53.058Z,1.60
2018-09-22T13:25:23.885Z,1.80
2018-09-22T13:27:54.733Z,1.67
2018-09-22T13:30:24.538Z,2.30
2018-09-22T13:32:55.405Z,1.43
2018-09-22T13:35:27.230Z,1.70
2018-09-22T13:37:57.070Z,1.37
2018-09-22T13:40:26.878Z,1.40
2018-09-22T13:42:57.686Z,1.77
2018-09-22T13:45:28.517Z,1.60
2018-09-22T13:47:59.370Z,1.53
2018-09-22T13:50:30.738Z,1.67
2018-09-22T13:53:01.550Z,2.47
2018-09-22T13:55:33.422Z,1.37
2018-09-22T13:58:03.198Z,1.63
2018-09-22T14:00:34.138Z,1.40
2018-09-22T14:03:03.962Z,1.50
2018-09-22T14:05:34.793Z,1.73
2018-09-22T14:08:05.738Z,1.50
2018-09-22T14:10:37.571Z,1.37
2018-09-22T14:13:11.770Z,1.47
2018-09-22T14:15:41.665Z,1.50
2018-09-22T14:18:11.486Z,2.27
2018-09-22T14:20:44.658Z,1.40
2018-09-22T14:23:21.969Z,1.53
2018-09-22T14:25:55.425Z,1.90
2018-09-22T14:28:25.242Z,1.70
2018-09-22T14:31:01.525Z,1.63
2018-09-22T14:33:33.386Z,1.77
2018-09-22T14:36:03.162Z,1.40
2018-09-22T14:38:34.006Z,1.57
2018-09-22T14:41:04.771Z,1.87
2018-09-22T14:43:35.565Z,1.27
2018-09-22T14:46:13.522Z,1.60
2018-09-22T14:48:44.310Z,2.20
2018-09-22T14:51:16.250Z,1.60
2018-09-22T14:53:46.078Z,1.93
2018-09-22T14:56:15.918Z,1.60
2018-09-22T14:58:46.726Z,1.33
2018-09-22T15:01:16.623Z,1.57
2018-09-22T15:03:47.482Z,1.43
2018-09-22T15:06:17.322Z,2.03
2018-09-22T15:08:48.126Z,1.73
2018-09-22T15:11:19.998Z,1.90
2018-09-22T15:13:54.022Z,2.10
2018-09-22T15:16:23.871Z,1.70
2018-09-22T15:19:04.090Z,1.73
2018-09-22T15:21:37.442Z,1.70
2018-09-22T15:24:09.197Z,1.33
2018-09-22T15:26:40.078Z,1.27
2018-09-22T15:29:09.858Z,1.77
2018-09-22T15:31:46.462Z,1.80
2018-09-22T15:34:20.769Z,1.80
2018-09-22T15:36:50.639Z,2.57
2018-09-22T15:39:24.482Z,1.50
2018-09-22T15:41:55.301Z,1.97
2018-09-22T15:44:29.304Z,1.40
2018-09-22T15:47:00.158Z,2.13
2018-09-22T15:49:33.778Z,1.53
2018-09-22T15:52:03.596Z,1.50
2018-09-22T15:54:34.405Z,1.90
2018-09-22T15:57:04.214Z,1.30
2018-09-22T15:59:34.185Z,1.40
2018-09-22T16:02:15.125Z,1.43
2018-09-22T16:04:44.934Z,1.57
2018-09-22T16:07:16.002Z,2.20
2018-09-22T16:09:58.005Z,1.90
2018-09-22T16:12:33.662Z,1.60
2018-09-22T16:15:05.454Z,1.60
2018-09-22T16:17:35.286Z,1.40
2018-09-22T16:20:10.929Z,1.80
2018-09-22T16:22:42.678Z,1.87
2018-09-22T16:25:13.502Z,1.80
2018-09-22T16:27:43.345Z,1.80
2018-09-22T16:30:14.182Z,1.60
2018-09-22T16:32:45.066Z,1.60
2018-09-22T16:35:18.931Z,1.10
2018-09-22T16:37:54.272Z,1.90
2018-09-22T16:40:25.033Z,1.10
2018-09-22T16:42:56.679Z,1.30
2018-09-22T16:45:27.665Z,1.23
2018-09-22T16:48:04.365Z,1.47
2018-09-22T16:50:34.324Z,1.50
2018-09-22T16:53:05.589Z,1.27
2018-09-22T16:55:48.074Z,1.50
2018-09-22T16:58:19.983Z,2.00
2018-09-22T17:00:49.946Z,1.73
2018-09-22T17:03:19.829Z,1.10
2018-09-22T17:05:53.293Z,1.37
2018-09-22T17:08:25.705Z,1.27
2018-09-22T17:10:56.501Z,1.27
2018-09-22T17:13:32.405Z,1.40
2018-09-22T17:16:02.348Z,1.73
2018-09-22T17:18:32.377Z,1.57
2018-09-22T17:21:03.290Z,1.70
2018-09-22T17:23:35.114Z,1.80
2018-09-22T17:26:04.961Z,1.80
2018-09-22T17:28:35.021Z,1.50
2018-09-22T17:31:04.869Z,1.70
2018-09-22T17:33:34.741Z,1.97
2018-09-22T17:36:04.602Z,1.50
2018-09-22T17:38:34.508Z,1.60
2018-09-22T17:41:14.817Z,1.33
2018-09-22T17:43:48.129Z,1.40
2018-09-22T17:46:17.986Z,1.60
2018-09-22T17:48:47.915Z,1.70
2018-09-22T17:51:20.125Z,1.50
2018-09-22T17:53:49.947Z,2.00
2018-09-22T17:56:19.742Z,1.47
2018-09-22T17:58:50.573Z,1.70
2018-09-22T18:01:25.337Z,2.00
2018-09-22T18:03:57.475Z,3.60
2018-09-22T18:06:32.122Z,3.57
2018-09-22T18:09:05.173Z,2.67
2018-09-22T18:11:42.613Z,3.40
2018-09-22T18:14:13.414Z,2.90
2018-09-22T18:16:47.820Z,2.53
2018-09-22T18:19:18.617Z,2.10
2018-09-22T18:21:51.342Z,2.43
2018-09-22T18:24:23.226Z,2.20
2018-09-22T18:26:54.121Z,2.50
2018-09-22T18:29:29.118Z,2.67
2018-09-22T18:31:59.914Z,2.77
2018-09-22T18:34:31.766Z,2.33
2018-09-22T18:37:01.638Z,3.27
2018-09-22T18:39:32.482Z,2.67
2018-09-22T18:42:10.022Z,1.93
2018-09-22T18:44:39.862Z,2.57
2018-09-22T18:47:11.733Z,1.97
2018-09-22T18:49:41.705Z,2.00
2018-09-22T18:52:11.510Z,2.30
2018-09-22T18:54:41.657Z,2.47
2018-09-22T18:57:12.493Z,2.43
2018-09-22T18:59:43.335Z,2.67
2018-09-22T19:02:17.041Z,3.30
2018-09-22T19:04:50.665Z,3.07
2018-09-22T19:07:28.678Z,2.50
2018-09-22T19:10:00.465Z,2.10
2018-09-22T19:12:31.326Z,1.97
2018-09-22T19:15:08.481Z,1.67
2018-09-22T19:18:07.038Z,1.50
2018-09-22T19:20:42.513Z,1.77
2018-09-22T19:23:18.033Z,1.50
2018-09-22T19:26:16.373Z,2.03
2018-09-22T19:28:52.429Z,1.80
2018-09-22T19:31:30.605Z,2.00
2018-09-22T19:34:05.750Z,2.33
2018-09-22T19:36:41.277Z,2.77
2018-09-22T19:39:21.957Z,1.50
2018-09-22T19:41:57.717Z,1.93
2018-09-22T19:45:35.190Z,1.90
2018-09-22T19:49:13.056Z,1.40
2018-09-22T19:51:50.258Z,2.30
2018-09-22T19:54:23.398Z,1.93
2018-09-22T19:56:54.306Z,2.17
2018-09-22T19:59:24.185Z,2.50
2018-09-22T20:01:54.337Z,1.40
2018-09-22T20:04:30.266Z,1.87
2018-09-22T20:07:01.189Z,2.00
2018-09-22T20:09:31.002Z,1.80
2018-09-22T20:12:05.183Z,1.97
2018-09-22T20:14:36.061Z,2.03
2018-09-22T20:17:05.964Z,1.73
2018-09-22T20:19:49.598Z,3.10
2018-09-22T20:22:24.661Z,2.57
2018-09-22T20:25:00.909Z,2.07
2018-09-22T20:27:31.713Z,3.27
2018-09-22T20:30:02.325Z,2.50
2018-09-22T20:32:39.437Z,2.43
2018-09-22T20:35:10.269Z,2.47
2018-09-22T20:37:41.109Z,2.30
2018-09-22T20:40:12.209Z,2.70
2018-09-22T20:42:44.889Z,3.07
2018-09-22T20:45:18.169Z,2.30
2018-09-22T20:47:49.037Z,2.23
2018-09-22T20:50:20.467Z,2.00
2018-09-22T20:52:50.197Z,3.30
2018-09-22T20:55:20.045Z,2.73
2018-09-22T20:57:49.889Z,1.87
2018-09-22T21:00:19.729Z,1.60
2018-09-22T21:02:49.534Z,2.20
2018-09-22T21:05:19.365Z,2.00
2018-09-22T21:07:49.169Z,2.87
2018-09-22T21:10:21.949Z,2.47
2018-09-22T21:12:52.777Z,2.00
2018-09-22T21:15:23.613Z,1.47
2018-09-22T21:17:53.885Z,1.83
2018-09-22T21:20:26.913Z,1.50
2018-09-22T21:23:00.877Z,1.57
2018-09-22T21:25:30.677Z,1.90
2018-09-22T21:28:01.505Z,1.90
2018-09-22T21:30:32.368Z,2.00
2018-09-22T21:33:03.197Z,1.40
2018-09-22T21:35:33.109Z,2.20
2018-09-22T21:38:02.981Z,1.43
2018-09-22T21:40:37.605Z,1.73
2018-09-22T21:43:07.824Z,1.73
2018-09-22T21:45:37.621Z,1.57
2018-09-22T21:48:09.565Z,1.77
2018-09-22T21:50:39.416Z,1.97
2018-09-22T21:53:09.260Z,2.40
2018-09-22T21:55:39.165Z,1.90
2018-09-22T21:58:08.979Z,1.53
2018-09-22T22:00:39.785Z,2.43
2018-09-22T22:03:09.816Z,1.80
2018-09-22T22:05:39.665Z,2.50
2018-09-22T22:08:10.497Z,2.13
2018-09-22T22:10:40.344Z,2.10
2018-09-22T22:13:11.394Z,2.20
2018-09-22T22:15:43.428Z,2.40
2018-09-22T22:18:13.269Z,2.23
2018-09-22T22:20:45.162Z,2.60
2018-09-22T22:23:15.921Z,2.70
2018-09-22T22:25:45.897Z,2.50
2018-09-22T22:28:15.700Z,2.30
2018-09-22T22:30:45.525Z,2.20
2018-09-22T22:33:19.896Z,2.30
2018-09-22T22:35:49.732Z,2.40
2018-09-22T22:38:19.557Z,2.40
2018-09-22T22:40:53.905Z,2.40
2018-09-22T22:43:23.872Z,2.77
2018-09-22T22:45:55.649Z,2.00
2018-09-22T22:48:25.517Z,2.00
2018-09-22T22:50:55.388Z,1.80
2018-09-22T22:53:29.024Z,2.10
2018-09-22T22:55:59.852Z,2.10
2018-09-22T22:58:29.772Z,2.30
2018-09-22T23:01:00.592Z,1.77
2018-09-22T23:03:31.472Z,2.03
2018-09-22T23:06:01.329Z,1.97
2018-09-22T23:08:31.153Z,1.90
2018-09-22T23:11:01.060Z,2.15
2018-09-22T23:13:31.929Z,1.77
2018-09-22T23:16:06.132Z,2.10
2018-09-22T23:18:41.168Z,2.03
2018-09-22T23:21:11.133Z,1.65
2018-09-22T23:23:40.993Z,1.43
2018-09-22T23:26:13.303Z,2.17
2018-09-22T23:28:45.126Z,1.90
2018-09-22T23:31:15.014Z,2.47
2018-09-22T23:33:46.905Z,1.80
2018-09-22T23:36:17.717Z,2.03
2018-09-22T23:38:48.569Z,1.80
2018-09-22T23:41:18.441Z,2.00
2018-09-22T23:43:50.341Z,1.80
2018-09-22T23:46:20.245Z,2.00
2018-09-22T23:48:51.093Z,2.10
2018-09-22T23:51:21.886Z,2.30
2018-09-22T23:53:51.760Z,2.10
2018-09-22T23:56:23.577Z,1.80
2018-09-22T23:58:59.357Z,2.30
